TimeWET,TemperatureF,Dew PointF,Humidity,Sea Level PressureIn,VisibilityMPH,Wind Direction,Wind SpeedMPH,Gust SpeedMPH,PrecipitationIn,Events,Conditions,WindDirDegrees,DateUTC
12:00 AM,65,61,83,29.97,6,Calm,Calm,,,,Scattered Clouds,,2013-04-18 00:00:00
12:00 AM,66.2,60.8,83,29.95,6.2,Calm,Calm,-,N/A,,Scattered Clouds,0,2013-04-18 00:00:00
1:00 AM,64.4,59.0,83,29.95,6.2,Calm,Calm,-,N/A,,Scattered Clouds,0,2013-04-18 01:00:00
2:00 AM,64.4,60.8,88,29.92,6.2,Calm,Calm,-,N/A,,Unknown,0,2013-04-18 02:00:00
3:00 AM,64,61,87,29.92,6,ENE,3.5,,,,,60,2013-04-18 03:00:00
3:00 AM,64.4,60.8,88,29.92,6.2,ENE,3.5,-,N/A,,Unknown,60,2013-04-18 03:00:00
4:00 AM,64.4,60.8,88,29.92,6.2,SE,2.3,-,N/A,,Unknown,140,2013-04-18 04:00:00
5:00 AM,66.2,60.8,83,29.92,6.2,East,3.5,-,N/A,,Unknown,100,2013-04-18 05:00:00
6:00 AM,62,60,89,29.94,3,West,5.8,,,,Partly Cloudy,270,2013-04-18 06:00:00
6:00 AM,64.4,60.8,88,29.92,6.2,Calm,Calm,-,N/A,,Scattered Clouds,0,2013-04-18 06:00:00
6:10 AM,60.8,59.0,94,29.92,1.9,West,4.6,-,N/A,,Scattered Clouds,280,2013-04-18 06:10:00
6:11 AM,60.8,59.0,94,29.92,1.2,West,4.6,-,N/A,,Mostly Cloudy,280,2013-04-18 06:11:00
6:23 AM,60.8,59.0,94,29.95,0.1,West,5.8,-,N/A,Fog,Fog,260,2013-04-18 06:23:00
6:24 AM,60.8,59.0,94,29.95,0.1,West,5.8,-,N/A,Fog,Fog,260,2013-04-18 06:24:00
6:51 AM,60.8,59.0,94,29.95,0.1,WSW,2.3,-,N/A,Fog,Fog,240,2013-04-18 06:51:00
6:52 AM,60.8,59.0,94,29.95,0.1,WSW,1.2,-,N/A,Fog,Fog,240,2013-04-18 06:52:00
7:00 AM,60.8,59.0,94,29.95,0.1,WSW,2.3,-,N/A,Fog,Fog,240,2013-04-18 07:00:00
7:47 AM,60.8,59.0,94,29.95,0.1,Calm,Calm,-,N/A,Fog,Fog,0,2013-04-18 07:47:00
8:00 AM,60.8,59.0,94,29.95,0.1,Calm,Calm,-,N/A,Fog,Fog,0,2013-04-18 08:00:00
8:37 AM,62.6,60.8,94,29.95,0.2,Calm,Calm,-,N/A,Fog,Fog,0,2013-04-18 08:37:00
8:44 AM,62.6,60.8,94,29.95,1.9,Calm,Calm,-,N/A,,Mostly Cloudy,0,2013-04-18 08:44:00
9:00 AM,64,62,92,29.97,3,Calm,Calm,,,Fog,Light Fog,,2013-04-18 09:00:00
9:00 AM,64.4,62.6,94,29.95,3.1,Calm,Calm,-,N/A,,Scattered Clouds,0,2013-04-18 09:00:00
11:00 AM,73.4,62.6,69,29.95,3.1,Calm,Calm,-,N/A,,Scattered Clouds,0,2013-04-18 11:00:00
12:00 PM,82,62,42,29.94,5,West,6.9,,,,Partly Cloudy,280,2013-04-18 12:00:00
12:00 PM,82.4,62.6,51,29.95,5.0,West,5.8,-,N/A,,Scattered Clouds,270,2013-04-18 12:00:00
1:00 PM,80.6,62.6,54,29.92,5.0,West,10.4,-,N/A,,Scattered Clouds,280,2013-04-18 13:00:00
2:00 PM,82.4,60.8,48,29.89,5.0,West,11.5,-,N/A,,Scattered Clouds,270,2013-04-18 14:00:00
3:00 PM,78,59,42,29.89,6,West,11.5,,,,Unknown Precipitation,270,2013-04-18 15:00:00
3:00 PM,78.8,59.0,51,29.89,6.2,West,11.5,-,N/A,,Scattered Clouds,270,2013-04-18 15:00:00
4:00 PM,80.6,59.0,48,29.89,6.2,WSW,9.2,-,N/A,,Scattered Clouds,250,2013-04-18 16:00:00
5:00 PM,82.4,57.2,42,29.89,6.2,SW,4.6,-,N/A,,Scattered Clouds,220,2013-04-18 17:00:00
6:00 PM,80,59,39,29.88,5,SW,8.1,,,,Clear,230,2013-04-18 18:00:00
6:00 PM,80.6,59.0,48,29.89,5.0,SW,8.1,-,N/A,,Scattered Clouds,230,2013-04-18 18:00:00
8:00 PM,66.2,60.8,83,29.89,3.7,West,9.2,-,N/A,,Scattered Clouds,280,2013-04-18 20:00:00
9:00 PM,64,60,83,29.93,6,WNW,6.9,,,,Partly Cloudy,290,2013-04-18 21:00:00
9:00 PM,64.4,60.8,88,29.92,6.2,WNW,6.9,-,N/A,,Scattered Clouds,290,2013-04-18 21:00:00
10:00 PM,64.4,60.8,88,29.95,6.2,East,9.2,-,N/A,,Unknown,100,2013-04-18 22:00:00
11:00 PM,64.4,59.0,83,29.92,6.2,NNE,3.5,-,N/A,,Unknown,20,2013-04-18 23:00:00